sensor_id;sensor_type;location;lat;lon;timestamp;P1;durP1;ratioP1;P2;durP2;ratioP2
43998;SDS011;51319;52.162;5.302;2023-05-02T00:02:24;44.90;;;24.67;;
43998;SDS011;51319;52.162;5.302;2023-05-02T00:04:52;42.10;;;24.10;;
43998;SDS011;51319;52.162;5.302;2023-05-02T00:07:21;40.67;;;24.13;;
43998;SDS011;51319;52.162;5.302;2023-05-02T00:09:49;45.08;;;23.58;;
43998;SDS011;51319;52.162;5.302;2023-05-02T00:12:16;40.92;;;23.35;;
43998;SDS011;51319;52.162;5.302;2023-05-02T00:14:43;40.17;;;23.80;;
43998;SDS011;51319;52.162;5.302;2023-05-02T00:17:17;47.45;;;22.02;;
43998;SDS011;51319;52.162;5.302;2023-05-02T00:19:48;44.47;;;20.85;;
43998;SDS011;51319;52.162;5.302;2023-05-02T00:22:15;31.27;;;18.90;;
43998;SDS011;51319;52.162;5.302;2023-05-02T00:24:42;33.70;;;17.17;;
43998;SDS011;51319;52.162;5.302;2023-05-02T00:27:09;28.98;;;16.25;;
43998;SDS011;51319;52.162;5.302;2023-05-02T00:29:36;22.55;;;13.95;;
43998;SDS011;51319;52.162;5.302;2023-05-02T00:32:04;25.83;;;12.93;;
43998;SDS011;51319;52.162;5.302;2023-05-02T00:34:31;20.27;;;11.25;;
43998;SDS011;51319;52.162;5.302;2023-05-02T00:36:58;24.33;;;11.35;;
43998;SDS011;51319;52.162;5.302;2023-05-02T00:39:25;17.40;;;10.02;;
43998;SDS011;51319;52.162;5.302;2023-05-02T00:41:56;18.83;;;9.18;;
43998;SDS011;51319;52.162;5.302;2023-05-02T00:44:23;20.40;;;8.55;;
43998;SDS011;51319;52.162;5.302;2023-05-02T00:46:51;22.35;;;8.23;;
43998;SDS011;51319;52.162;5.302;2023-05-02T00:49:19;17.85;;;7.90;;
43998;SDS011;51319;52.162;5.302;2023-05-02T00:51:46;19.23;;;7.35;;
43998;SDS011;51319;52.162;5.302;2023-05-02T00:54:13;15.68;;;7.43;;
43998;SDS011;51319;52.162;5.302;2023-05-02T00:56:42;16.80;;;7.45;;
43998;SDS011;51319;52.162;5.302;2023-05-02T00:59:09;17.63;;;8.20;;
43998;SDS011;51319;52.162;5.302;2023-05-02T01:04:41;19.00;;;6.80;;
43998;SDS011;51319;52.162;5.302;2023-05-02T01:13:21;17.42;;;6.47;;
43998;SDS011;51319;52.162;5.302;2023-05-02T01:15:55;15.35;;;5.82;;
43998;SDS011;51319;52.162;5.302;2023-05-02T01:18:27;9.73;;;3.80;;
43998;SDS011;51319;52.162;5.302;2023-05-02T01:21:03;15.35;;;3.55;;
43998;SDS011;51319;52.162;5.302;2023-05-02T01:31:27;12.48;;;3.08;;
43998;SDS011;51319;52.162;5.302;2023-05-02T01:33:59;14.77;;;3.05;;
43998;SDS011;51319;52.162;5.302;2023-05-02T01:36:30;15.55;;;3.65;;
43998;SDS011;51319;52.162;5.302;2023-05-02T01:38:59;8.30;;;2.58;;
43998;SDS011;51319;52.162;5.302;2023-05-02T01:41:29;10.93;;;3.40;;
43998;SDS011;51319;52.162;5.302;2023-05-02T01:43:58;13.00;;;3.30;;
43998;SDS011;51319;52.162;5.302;2023-05-02T01:46:29;14.75;;;3.17;;
43998;SDS011;51319;52.162;5.302;2023-05-02T01:49:01;20.90;;;3.70;;
43998;SDS011;51319;52.162;5.302;2023-05-02T01:51:31;14.63;;;3.13;;
43998;SDS011;51319;52.162;5.302;2023-05-02T01:54:00;13.85;;;3.72;;
43998;SDS011;51319;52.162;5.302;2023-05-02T01:56:31;14.55;;;2.55;;
43998;SDS011;51319;52.162;5.302;2023-05-02T01:59:01;9.82;;;2.58;;
43998;SDS011;51319;52.162;5.302;2023-05-02T02:01:34;13.13;;;2.60;;
43998;SDS011;51319;52.162;5.302;2023-05-02T02:04:03;10.50;;;2.10;;
43998;SDS011;51319;52.162;5.302;2023-05-02T02:06:33;6.78;;;1.73;;
43998;SDS011;51319;52.162;5.302;2023-05-02T02:09:01;4.40;;;1.60;;
43998;SDS011;51319;52.162;5.302;2023-05-02T02:11:35;9.77;;;2.20;;
43998;SDS011;51319;52.162;5.302;2023-05-02T02:14:15;8.25;;;2.38;;
43998;SDS011;51319;52.162;5.302;2023-05-02T02:16:47;9.18;;;2.00;;
43998;SDS011;51319;52.162;5.302;2023-05-02T02:19:19;5.47;;;1.70;;
43998;SDS011;51319;52.162;5.302;2023-05-02T02:21:47;13.60;;;2.45;;
43998;SDS011;51319;52.162;5.302;2023-05-02T02:24:19;7.53;;;1.75;;
43998;SDS011;51319;52.162;5.302;2023-05-02T02:26:49;9.90;;;2.20;;
43998;SDS011;51319;52.162;5.302;2023-05-02T02:29:16;5.68;;;1.60;;
43998;SDS011;51319;52.162;5.302;2023-05-02T02:31:46;6.70;;;1.60;;
43998;SDS011;51319;52.162;5.302;2023-05-02T02:34:13;4.10;;;1.77;;
43998;SDS011;51319;52.162;5.302;2023-05-02T02:44:53;7.20;;;2.05;;
43998;SDS011;51319;52.162;5.302;2023-05-02T02:53:16;8.02;;;1.85;;
43998;SDS011;51319;52.162;5.302;2023-05-02T02:55:52;6.47;;;1.70;;
43998;SDS011;51319;52.162;5.302;2023-05-02T03:01:17;8.13;;;1.80;;
43998;SDS011;51319;52.162;5.302;2023-05-02T03:03:47;13.32;;;2.10;;
43998;SDS011;51319;52.162;5.302;2023-05-02T03:06:16;10.52;;;1.67;;
43998;SDS011;51319;52.162;5.302;2023-05-02T03:08:46;7.25;;;1.70;;
43998;SDS011;51319;52.162;5.302;2023-05-02T03:11:13;15.48;;;1.77;;
43998;SDS011;51319;52.162;5.302;2023-05-02T03:13:40;7.70;;;1.80;;
43998;SDS011;51319;52.162;5.302;2023-05-02T03:19:02;8.50;;;1.55;;
43998;SDS011;51319;52.162;5.302;2023-05-02T03:21:31;8.48;;;1.83;;
43998;SDS011;51319;52.162;5.302;2023-05-02T03:24:00;9.13;;;2.90;;
43998;SDS011;51319;52.162;5.302;2023-05-02T03:26:28;10.90;;;3.22;;
43998;SDS011;51319;52.162;5.302;2023-05-02T03:28:56;13.27;;;2.20;;
43998;SDS011;51319;52.162;5.302;2023-05-02T03:31:24;7.53;;;1.48;;
43998;SDS011;51319;52.162;5.302;2023-05-02T03:33:52;11.95;;;1.80;;
43998;SDS011;51319;52.162;5.302;2023-05-02T03:36:19;13.32;;;2.30;;
43998;SDS011;51319;52.162;5.302;2023-05-02T03:38:46;9.93;;;2.22;;
43998;SDS011;51319;52.162;5.302;2023-05-02T03:41:13;8.05;;;2.38;;
43998;SDS011;51319;52.162;5.302;2023-05-02T03:43:41;6.75;;;2.00;;
43998;SDS011;51319;52.162;5.302;2023-05-02T03:46:08;10.38;;;2.60;;
43998;SDS011;51319;52.162;5.302;2023-05-02T03:48:37;13.70;;;2.10;;
43998;SDS011;51319;52.162;5.302;2023-05-02T03:51:05;16.48;;;2.20;;
43998;SDS011;51319;52.162;5.302;2023-05-02T03:53:35;12.88;;;2.08;;
43998;SDS011;51319;52.162;5.302;2023-05-02T03:56:02;10.98;;;2.47;;
43998;SDS011;51319;52.162;5.302;2023-05-02T03:58:29;8.52;;;2.03;;
43998;SDS011;51319;52.162;5.302;2023-05-02T04:00:58;9.15;;;2.00;;
43998;SDS011;51319;52.162;5.302;2023-05-02T04:03:24;12.98;;;2.03;;
43998;SDS011;51319;52.162;5.302;2023-05-02T04:05:55;10.07;;;2.25;;
43998;SDS011;51319;52.162;5.302;2023-05-02T04:08:21;9.00;;;2.03;;
43998;SDS011;51319;52.162;5.302;2023-05-02T04:10:52;8.23;;;2.10;;
43998;SDS011;51319;52.162;5.302;2023-05-02T04:13:19;9.35;;;2.15;;
43998;SDS011;51319;52.162;5.302;2023-05-02T04:15:46;10.77;;;2.33;;
43998;SDS011;51319;52.162;5.302;2023-05-02T04:18:14;16.25;;;2.55;;
43998;SDS011;51319;52.162;5.302;2023-05-02T04:20:42;9.38;;;2.25;;
43998;SDS011;51319;52.162;5.302;2023-05-02T04:23:12;12.30;;;2.30;;
43998;SDS011;51319;52.162;5.302;2023-05-02T04:25:41;13.73;;;2.13;;
43998;SDS011;51319;52.162;5.302;2023-05-02T04:28:19;7.65;;;2.53;;
43998;SDS011;51319;52.162;5.302;2023-05-02T04:30:48;11.43;;;2.75;;
43998;SDS011;51319;52.162;5.302;2023-05-02T04:33:16;11.32;;;2.33;;
43998;SDS011;51319;52.162;5.302;2023-05-02T04:35:44;13.13;;;2.75;;
43998;SDS011;51319;52.162;5.302;2023-05-02T04:38:12;12.32;;;2.80;;
43998;SDS011;51319;52.162;5.302;2023-05-02T04:40:39;15.98;;;3.55;;
43998;SDS011;51319;52.162;5.302;2023-05-02T04:43:07;10.23;;;2.40;;
43998;SDS011;51319;52.162;5.302;2023-05-02T04:45:34;10.55;;;2.58;;
43998;SDS011;51319;52.162;5.302;2023-05-02T04:48:04;12.93;;;3.25;;
43998;SDS011;51319;52.162;5.302;2023-05-02T04:50:31;14.98;;;3.22;;
43998;SDS011;51319;52.162;5.302;2023-05-02T04:52:58;19.13;;;3.88;;
43998;SDS011;51319;52.162;5.302;2023-05-02T04:55:25;14.18;;;3.58;;
43998;SDS011;51319;52.162;5.302;2023-05-02T04:57:52;24.00;;;4.13;;
43998;SDS011;51319;52.162;5.302;2023-05-02T05:00:19;18.80;;;3.90;;
43998;SDS011;51319;52.162;5.302;2023-05-02T05:02:47;12.57;;;3.30;;
43998;SDS011;51319;52.162;5.302;2023-05-02T05:05:14;24.13;;;3.58;;
43998;SDS011;51319;52.162;5.302;2023-05-02T05:07:41;23.63;;;3.50;;
43998;SDS011;51319;52.162;5.302;2023-05-02T05:10:08;19.90;;;3.85;;
43998;SDS011;51319;52.162;5.302;2023-05-02T05:12:37;20.15;;;4.20;;
43998;SDS011;51319;52.162;5.302;2023-05-02T05:15:04;16.77;;;3.50;;
43998;SDS011;51319;52.162;5.302;2023-05-02T05:17:32;23.63;;;4.50;;
43998;SDS011;51319;52.162;5.302;2023-05-02T05:20:02;20.35;;;3.90;;
43998;SDS011;51319;52.162;5.302;2023-05-02T05:22:39;21.65;;;4.00;;
43998;SDS011;51319;52.162;5.302;2023-05-02T05:25:07;19.75;;;3.67;;
43998;SDS011;51319;52.162;5.302;2023-05-02T05:27:35;20.50;;;3.45;;
43998;SDS011;51319;52.162;5.302;2023-05-02T05:30:03;20.25;;;3.65;;
43998;SDS011;51319;52.162;5.302;2023-05-02T05:32:34;24.65;;;4.00;;
43998;SDS011;51319;52.162;5.302;2023-05-02T05:35:01;19.40;;;3.47;;
43998;SDS011;51319;52.162;5.302;2023-05-02T05:37:29;23.40;;;3.65;;
43998;SDS011;51319;52.162;5.302;2023-05-02T05:39:56;19.42;;;3.63;;
43998;SDS011;51319;52.162;5.302;2023-05-02T05:42:23;12.48;;;3.20;;
43998;SDS011;51319;52.162;5.302;2023-05-02T05:44:51;16.90;;;3.63;;
43998;SDS011;51319;52.162;5.302;2023-05-02T05:47:21;19.55;;;3.92;;
43998;SDS011;51319;52.162;5.302;2023-05-02T05:49:55;16.60;;;3.05;;
43998;SDS011;51319;52.162;5.302;2023-05-02T05:52:22;19.50;;;3.47;;
43998;SDS011;51319;52.162;5.302;2023-05-02T05:54:48;27.23;;;4.63;;
43998;SDS011;51319;52.162;5.302;2023-05-02T05:57:21;20.70;;;3.33;;
43998;SDS011;51319;52.162;5.302;2023-05-02T05:59:48;14.05;;;3.30;;
43998;SDS011;51319;52.162;5.302;2023-05-02T06:02:15;19.75;;;4.43;;
43998;SDS011;51319;52.162;5.302;2023-05-02T06:04:42;24.55;;;3.90;;
43998;SDS011;51319;52.162;5.302;2023-05-02T06:07:08;14.45;;;3.28;;
43998;SDS011;51319;52.162;5.302;2023-05-02T06:09:36;15.25;;;2.90;;
43998;SDS011;51319;52.162;5.302;2023-05-02T06:12:03;9.57;;;2.50;;
43998;SDS011;51319;52.162;5.302;2023-05-02T06:14:30;10.68;;;2.53;;
43998;SDS011;51319;52.162;5.302;2023-05-02T06:17:00;15.30;;;2.80;;
43998;SDS011;51319;52.162;5.302;2023-05-02T06:22:12;13.48;;;3.15;;
43998;SDS011;51319;52.162;5.302;2023-05-02T06:24:39;16.77;;;3.45;;
43998;SDS011;51319;52.162;5.302;2023-05-02T06:27:06;16.60;;;2.83;;
43998;SDS011;51319;52.162;5.302;2023-05-02T06:29:33;11.88;;;2.85;;
43998;SDS011;51319;52.162;5.302;2023-05-02T06:32:01;15.43;;;3.83;;
43998;SDS011;51319;52.162;5.302;2023-05-02T06:37:15;12.70;;;3.00;;
43998;SDS011;51319;52.162;5.302;2023-05-02T06:39:41;9.38;;;2.42;;
43998;SDS011;51319;52.162;5.302;2023-05-02T06:44:54;12.23;;;2.67;;
43998;SDS011;51319;52.162;5.302;2023-05-02T06:47:21;14.23;;;2.03;;
43998;SDS011;51319;52.162;5.302;2023-05-02T06:49:52;9.95;;;2.38;;
43998;SDS011;51319;52.162;5.302;2023-05-02T06:52:19;11.45;;;2.35;;
43998;SDS011;51319;52.162;5.302;2023-05-02T06:54:46;16.73;;;2.78;;
43998;SDS011;51319;52.162;5.302;2023-05-02T06:57:13;11.90;;;2.55;;
43998;SDS011;51319;52.162;5.302;2023-05-02T06:59:40;13.38;;;2.58;;
43998;SDS011;51319;52.162;5.302;2023-05-02T07:02:08;11.70;;;2.60;;
43998;SDS011;51319;52.162;5.302;2023-05-02T07:04:37;15.05;;;3.63;;
43998;SDS011;51319;52.162;5.302;2023-05-02T07:07:04;10.02;;;2.38;;
43998;SDS011;51319;52.162;5.302;2023-05-02T07:09:31;16.85;;;3.05;;
43998;SDS011;51319;52.162;5.302;2023-05-02T07:11:58;11.90;;;2.50;;
43998;SDS011;51319;52.162;5.302;2023-05-02T07:14:26;15.82;;;3.30;;
43998;SDS011;51319;52.162;5.302;2023-05-02T07:16:53;11.02;;;2.42;;
43998;SDS011;51319;52.162;5.302;2023-05-02T07:19:20;15.25;;;3.50;;
43998;SDS011;51319;52.162;5.302;2023-05-02T07:21:48;19.95;;;3.08;;
43998;SDS011;51319;52.162;5.302;2023-05-02T07:24:15;14.05;;;2.45;;
43998;SDS011;51319;52.162;5.302;2023-05-02T07:26:42;12.35;;;3.08;;
43998;SDS011;51319;52.162;5.302;2023-05-02T07:29:09;10.18;;;2.40;;
43998;SDS011;51319;52.162;5.302;2023-05-02T07:31:36;16.52;;;2.40;;
43998;SDS011;51319;52.162;5.302;2023-05-02T07:34:04;17.92;;;2.80;;
43998;SDS011;51319;52.162;5.302;2023-05-02T07:36:32;14.40;;;3.25;;
43998;SDS011;51319;52.162;5.302;2023-05-02T07:39:00;16.17;;;3.28;;
43998;SDS011;51319;52.162;5.302;2023-05-02T07:41:29;16.92;;;3.05;;
43998;SDS011;51319;52.162;5.302;2023-05-02T07:43:56;7.93;;;2.13;;
43998;SDS011;51319;52.162;5.302;2023-05-02T07:46:23;18.48;;;3.28;;
43998;SDS011;51319;52.162;5.302;2023-05-02T07:48:50;12.32;;;2.67;;
43998;SDS011;51319;52.162;5.302;2023-05-02T07:54:17;11.27;;;2.20;;
43998;SDS011;51319;52.162;5.302;2023-05-02T08:01:58;11.93;;;2.85;;
43998;SDS011;51319;52.162;5.302;2023-05-02T08:04:26;9.43;;;2.00;;
43998;SDS011;51319;52.162;5.302;2023-05-02T08:06:53;8.00;;;2.20;;
43998;SDS011;51319;52.162;5.302;2023-05-02T08:09:21;13.05;;;2.90;;
43998;SDS011;51319;52.162;5.302;2023-05-02T08:11:48;13.80;;;3.13;;
43998;SDS011;51319;52.162;5.302;2023-05-02T08:19:36;15.40;;;1.85;;
43998;SDS011;51319;52.162;5.302;2023-05-02T08:22:03;10.65;;;2.47;;
43998;SDS011;51319;52.162;5.302;2023-05-02T08:24:42;6.43;;;1.85;;
43998;SDS011;51319;52.162;5.302;2023-05-02T08:27:11;14.50;;;2.55;;
43998;SDS011;51319;52.162;5.302;2023-05-02T08:29:37;8.68;;;2.05;;
43998;SDS011;51319;52.162;5.302;2023-05-02T08:32:07;9.43;;;1.65;;
43998;SDS011;51319;52.162;5.302;2023-05-02T08:34:34;11.32;;;1.95;;
43998;SDS011;51319;52.162;5.302;2023-05-02T08:37:12;9.98;;;2.10;;
43998;SDS011;51319;52.162;5.302;2023-05-02T08:39:39;6.63;;;1.70;;
43998;SDS011;51319;52.162;5.302;2023-05-02T08:42:06;6.18;;;1.70;;
43998;SDS011;51319;52.162;5.302;2023-05-02T08:44:34;8.45;;;1.85;;
43998;SDS011;51319;52.162;5.302;2023-05-02T08:49:39;9.32;;;1.73;;
43998;SDS011;51319;52.162;5.302;2023-05-02T08:52:09;11.00;;;2.33;;
43998;SDS011;51319;52.162;5.302;2023-05-02T08:54:41;10.57;;;1.95;;
43998;SDS011;51319;52.162;5.302;2023-05-02T08:57:10;5.65;;;1.50;;
43998;SDS011;51319;52.162;5.302;2023-05-02T08:59:36;5.78;;;1.77;;
43998;SDS011;51319;52.162;5.302;2023-05-02T09:05:04;7.50;;;1.63;;
43998;SDS011;51319;52.162;5.302;2023-05-02T09:07:43;6.90;;;1.77;;
43998;SDS011;51319;52.162;5.302;2023-05-02T09:10:12;11.27;;;1.55;;
43998;SDS011;51319;52.162;5.302;2023-05-02T09:12:40;6.07;;;1.42;;
43998;SDS011;51319;52.162;5.302;2023-05-02T09:15:08;5.05;;;1.92;;
43998;SDS011;51319;52.162;5.302;2023-05-02T09:17:43;6.38;;;1.92;;
43998;SDS011;51319;52.162;5.302;2023-05-02T09:20:12;5.97;;;1.45;;
43998;SDS011;51319;52.162;5.302;2023-05-02T09:22:46;4.75;;;1.52;;
43998;SDS011;51319;52.162;5.302;2023-05-02T09:25:20;7.07;;;1.40;;
43998;SDS011;51319;52.162;5.302;2023-05-02T09:27:48;4.60;;;1.50;;
43998;SDS011;51319;52.162;5.302;2023-05-02T09:30:20;5.00;;;1.20;;
43998;SDS011;51319;52.162;5.302;2023-05-02T09:32:51;11.02;;;1.60;;
43998;SDS011;51319;52.162;5.302;2023-05-02T09:35:22;7.65;;;2.22;;
43998;SDS011;51319;52.162;5.302;2023-05-02T09:37:57;6.28;;;1.63;;
43998;SDS011;51319;52.162;5.302;2023-05-02T09:40:24;7.25;;;1.83;;
43998;SDS011;51319;52.162;5.302;2023-05-02T09:42:55;9.98;;;3.47;;
43998;SDS011;51319;52.162;5.302;2023-05-02T09:45:23;10.35;;;2.20;;
43998;SDS011;51319;52.162;5.302;2023-05-02T09:47:51;10.25;;;2.20;;
43998;SDS011;51319;52.162;5.302;2023-05-02T09:50:36;4.22;;;1.58;;
43998;SDS011;51319;52.162;5.302;2023-05-02T09:53:04;4.95;;;1.33;;
43998;SDS011;51319;52.162;5.302;2023-05-02T09:55:33;9.13;;;2.38;;
43998;SDS011;51319;52.162;5.302;2023-05-02T09:58:01;9.95;;;2.47;;
43998;SDS011;51319;52.162;5.302;2023-05-02T10:00:42;6.80;;;1.85;;
43998;SDS011;51319;52.162;5.302;2023-05-02T10:03:10;11.10;;;2.97;;
43998;SDS011;51319;52.162;5.302;2023-05-02T10:05:40;10.38;;;1.70;;
43998;SDS011;51319;52.162;5.302;2023-05-02T10:08:09;10.90;;;1.80;;
43998;SDS011;51319;52.162;5.302;2023-05-02T10:10:39;7.65;;;1.77;;
43998;SDS011;51319;52.162;5.302;2023-05-02T10:13:10;7.88;;;1.55;;
43998;SDS011;51319;52.162;5.302;2023-05-02T10:15:42;7.70;;;1.75;;
43998;SDS011;51319;52.162;5.302;2023-05-02T10:20:47;4.78;;;1.70;;
43998;SDS011;51319;52.162;5.302;2023-05-02T10:23:28;7.28;;;2.13;;
43998;SDS011;51319;52.162;5.302;2023-05-02T10:25:58;7.90;;;1.95;;
43998;SDS011;51319;52.162;5.302;2023-05-02T10:28:28;9.30;;;1.88;;
43998;SDS011;51319;52.162;5.302;2023-05-02T10:30:59;6.10;;;1.80;;
43998;SDS011;51319;52.162;5.302;2023-05-02T10:33:28;9.63;;;2.85;;
43998;SDS011;51319;52.162;5.302;2023-05-02T10:35:57;4.88;;;1.50;;
43998;SDS011;51319;52.162;5.302;2023-05-02T10:38:24;6.38;;;1.70;;
43998;SDS011;51319;52.162;5.302;2023-05-02T10:40:56;7.22;;;1.70;;
43998;SDS011;51319;52.162;5.302;2023-05-02T10:43:29;7.15;;;2.30;;
43998;SDS011;51319;52.162;5.302;2023-05-02T10:46:01;5.57;;;2.00;;
43998;SDS011;51319;52.162;5.302;2023-05-02T10:51:14;7.93;;;1.73;;
43998;SDS011;51319;52.162;5.302;2023-05-02T10:59:29;8.18;;;1.77;;
43998;SDS011;51319;52.162;5.302;2023-05-02T11:04:57;5.55;;;1.65;;
43998;SDS011;51319;52.162;5.302;2023-05-02T11:07:33;6.50;;;1.88;;
43998;SDS011;51319;52.162;5.302;2023-05-02T11:12:44;6.05;;;1.98;;
43998;SDS011;51319;52.162;5.302;2023-05-02T11:18:12;5.38;;;1.73;;
43998;SDS011;51319;52.162;5.302;2023-05-02T11:31:02;8.07;;;2.42;;
43998;SDS011;51319;52.162;5.302;2023-05-02T11:36:26;9.95;;;2.25;;
43998;SDS011;51319;52.162;5.302;2023-05-02T11:39:00;8.75;;;2.25;;
43998;SDS011;51319;52.162;5.302;2023-05-02T11:41:42;11.10;;;2.22;;
43998;SDS011;51319;52.162;5.302;2023-05-02T11:44:10;15.13;;;2.45;;
43998;SDS011;51319;52.162;5.302;2023-05-02T11:46:38;11.82;;;2.60;;
43998;SDS011;51319;52.162;5.302;2023-05-02T11:49:06;15.23;;;2.53;;
43998;SDS011;51319;52.162;5.302;2023-05-02T11:51:39;9.63;;;2.60;;
43998;SDS011;51319;52.162;5.302;2023-05-02T11:54:15;8.88;;;2.30;;
43998;SDS011;51319;52.162;5.302;2023-05-02T11:56:44;9.10;;;2.08;;
43998;SDS011;51319;52.162;5.302;2023-05-02T11:59:12;12.68;;;2.30;;
43998;SDS011;51319;52.162;5.302;2023-05-02T12:01:51;8.18;;;2.63;;
43998;SDS011;51319;52.162;5.302;2023-05-02T12:04:20;9.13;;;2.23;;
43998;SDS011;51319;52.162;5.302;2023-05-02T12:12:22;10.13;;;2.63;;
43998;SDS011;51319;52.162;5.302;2023-05-02T12:28:46;10.90;;;2.60;;
43998;SDS011;51319;52.162;5.302;2023-05-02T12:42:13;7.80;;;2.00;;
43998;SDS011;51319;52.162;5.302;2023-05-02T12:44:42;14.20;;;2.35;;
43998;SDS011;51319;52.162;5.302;2023-05-02T12:55:22;6.50;;;2.00;;
43998;SDS011;51319;52.162;5.302;2023-05-02T12:57:55;12.13;;;2.38;;
43998;SDS011;51319;52.162;5.302;2023-05-02T13:05:56;9.93;;;2.03;;
43998;SDS011;51319;52.162;5.302;2023-05-02T13:08:24;7.45;;;1.80;;
43998;SDS011;51319;52.162;5.302;2023-05-02T13:40:55;8.40;;;2.25;;
43998;SDS011;51319;52.162;5.302;2023-05-02T13:43:23;4.35;;;1.58;;
43998;SDS011;51319;52.162;5.302;2023-05-02T13:45:50;10.18;;;1.98;;
43998;SDS011;51319;52.162;5.302;2023-05-02T13:48:17;7.90;;;1.95;;
43998;SDS011;51319;52.162;5.302;2023-05-02T13:50:46;8.40;;;2.20;;
43998;SDS011;51319;52.162;5.302;2023-05-02T13:55:52;25.75;;;15.13;;
43998;SDS011;51319;52.162;5.302;2023-05-02T13:58:19;6.47;;;2.00;;
43998;SDS011;51319;52.162;5.302;2023-05-02T14:00:47;6.82;;;2.05;;
43998;SDS011;51319;52.162;5.302;2023-05-02T14:03:16;7.38;;;1.60;;
43998;SDS011;51319;52.162;5.302;2023-05-02T14:05:43;6.45;;;1.52;;
43998;SDS011;51319;52.162;5.302;2023-05-02T14:08:10;8.98;;;2.20;;
43998;SDS011;51319;52.162;5.302;2023-05-02T14:10:37;7.40;;;2.75;;
43998;SDS011;51319;52.162;5.302;2023-05-02T14:13:05;2.67;;;1.40;;
43998;SDS011;51319;52.162;5.302;2023-05-02T14:15:32;5.65;;;2.13;;
43998;SDS011;51319;52.162;5.302;2023-05-02T14:17:59;5.65;;;1.65;;
43998;SDS011;51319;52.162;5.302;2023-05-02T14:23:12;7.82;;;2.20;;
43998;SDS011;51319;52.162;5.302;2023-05-02T14:25:39;6.22;;;1.90;;
43998;SDS011;51319;52.162;5.302;2023-05-02T14:28:07;7.43;;;1.73;;
43998;SDS011;51319;52.162;5.302;2023-05-02T14:30:35;8.07;;;1.92;;
43998;SDS011;51319;52.162;5.302;2023-05-02T14:33:02;7.75;;;1.85;;
43998;SDS011;51319;52.162;5.302;2023-05-02T14:35:29;7.13;;;1.65;;
43998;SDS011;51319;52.162;5.302;2023-05-02T14:37:56;6.05;;;1.48;;
43998;SDS011;51319;52.162;5.302;2023-05-02T14:40:23;4.80;;;1.20;;
43998;SDS011;51319;52.162;5.302;2023-05-02T14:42:50;6.95;;;1.40;;
43998;SDS011;51319;52.162;5.302;2023-05-02T14:45:19;4.60;;;1.55;;
43998;SDS011;51319;52.162;5.302;2023-05-02T14:47:46;8.65;;;1.77;;
43998;SDS011;51319;52.162;5.302;2023-05-02T14:50:13;3.75;;;1.33;;
43998;SDS011;51319;52.162;5.302;2023-05-02T14:52:41;5.45;;;1.45;;
43998;SDS011;51319;52.162;5.302;2023-05-02T14:55:08;5.43;;;1.30;;
43998;SDS011;51319;52.162;5.302;2023-05-02T14:57:36;4.72;;;1.20;;
43998;SDS011;51319;52.162;5.302;2023-05-02T15:00:04;5.35;;;1.50;;
43998;SDS011;51319;52.162;5.302;2023-05-02T15:02:35;6.45;;;2.28;;
43998;SDS011;51319;52.162;5.302;2023-05-02T15:05:02;8.13;;;2.30;;
43998;SDS011;51319;52.162;5.302;2023-05-02T15:07:32;2.40;;;1.10;;
43998;SDS011;51319;52.162;5.302;2023-05-02T15:10:02;4.55;;;1.33;;
43998;SDS011;51319;52.162;5.302;2023-05-02T15:12:30;7.05;;;1.20;;
43998;SDS011;51319;52.162;5.302;2023-05-02T15:14:59;4.45;;;1.40;;
43998;SDS011;51319;52.162;5.302;2023-05-02T15:17:26;3.75;;;1.33;;
43998;SDS011;51319;52.162;5.302;2023-05-02T15:19:58;5.53;;;1.60;;
43998;SDS011;51319;52.162;5.302;2023-05-02T15:22:25;9.57;;;1.70;;
43998;SDS011;51319;52.162;5.302;2023-05-02T15:24:52;5.65;;;1.63;;
43998;SDS011;51319;52.162;5.302;2023-05-02T15:27:20;7.43;;;1.45;;
43998;SDS011;51319;52.162;5.302;2023-05-02T15:29:47;7.00;;;1.58;;
43998;SDS011;51319;52.162;5.302;2023-05-02T15:32:14;4.32;;;1.50;;
43998;SDS011;51319;52.162;5.302;2023-05-02T15:34:41;4.13;;;1.42;;
43998;SDS011;51319;52.162;5.302;2023-05-02T15:37:11;6.25;;;1.40;;
43998;SDS011;51319;52.162;5.302;2023-05-02T15:39:38;5.40;;;1.80;;
43998;SDS011;51319;52.162;5.302;2023-05-02T15:42:05;5.03;;;1.60;;
43998;SDS011;51319;52.162;5.302;2023-05-02T15:44:35;5.82;;;1.48;;
43998;SDS011;51319;52.162;5.302;2023-05-02T15:47:03;4.10;;;1.00;;
43998;SDS011;51319;52.162;5.302;2023-05-02T15:49:30;3.53;;;1.20;;
43998;SDS011;51319;52.162;5.302;2023-05-02T15:52:01;4.72;;;1.30;;
43998;SDS011;51319;52.162;5.302;2023-05-02T15:54:28;4.40;;;1.20;;
43998;SDS011;51319;52.162;5.302;2023-05-02T15:56:57;5.00;;;1.02;;
43998;SDS011;51319;52.162;5.302;2023-05-02T15:59:24;3.67;;;1.30;;
43998;SDS011;51319;52.162;5.302;2023-05-02T16:01:51;7.25;;;1.65;;
43998;SDS011;51319;52.162;5.302;2023-05-02T16:04:18;5.75;;;1.23;;
43998;SDS011;51319;52.162;5.302;2023-05-02T16:06:48;7.15;;;1.90;;
43998;SDS011;51319;52.162;5.302;2023-05-02T16:09:15;8.00;;;2.15;;
43998;SDS011;51319;52.162;5.302;2023-05-02T16:11:42;7.10;;;1.63;;
43998;SDS011;51319;52.162;5.302;2023-05-02T16:14:09;5.60;;;1.27;;
43998;SDS011;51319;52.162;5.302;2023-05-02T16:16:36;3.92;;;2.03;;
43998;SDS011;51319;52.162;5.302;2023-05-02T16:19:03;2.10;;;1.20;;
43998;SDS011;51319;52.162;5.302;2023-05-02T16:21:30;7.85;;;1.67;;
43998;SDS011;51319;52.162;5.302;2023-05-02T16:23:57;5.30;;;1.63;;
43998;SDS011;51319;52.162;5.302;2023-05-02T16:26:24;3.88;;;0.95;;
43998;SDS011;51319;52.162;5.302;2023-05-02T16:28:54;2.35;;;0.93;;
43998;SDS011;51319;52.162;5.302;2023-05-02T16:31:21;7.18;;;1.23;;
43998;SDS011;51319;52.162;5.302;2023-05-02T16:33:48;4.85;;;1.15;;
43998;SDS011;51319;52.162;5.302;2023-05-02T16:36:16;5.22;;;1.20;;
43998;SDS011;51319;52.162;5.302;2023-05-02T16:38:44;2.83;;;1.10;;
43998;SDS011;51319;52.162;5.302;2023-05-02T16:41:12;2.45;;;1.20;;
43998;SDS011;51319;52.162;5.302;2023-05-02T16:43:39;5.93;;;1.70;;
43998;SDS011;51319;52.162;5.302;2023-05-02T16:46:06;5.18;;;1.13;;
43998;SDS011;51319;52.162;5.302;2023-05-02T16:48:33;4.43;;;1.08;;
43998;SDS011;51319;52.162;5.302;2023-05-02T16:51:00;6.55;;;2.30;;
43998;SDS011;51319;52.162;5.302;2023-05-02T16:53:29;5.43;;;0.80;;
43998;SDS011;51319;52.162;5.302;2023-05-02T16:55:57;6.90;;;2.50;;
43998;SDS011;51319;52.162;5.302;2023-05-02T16:58:26;8.05;;;1.67;;
43998;SDS011;51319;52.162;5.302;2023-05-02T17:00:57;2.53;;;0.98;;
43998;SDS011;51319;52.162;5.302;2023-05-02T17:03:25;3.25;;;1.20;;
43998;SDS011;51319;52.162;5.302;2023-05-02T17:05:56;2.95;;;1.13;;
43998;SDS011;51319;52.162;5.302;2023-05-02T17:10:52;4.22;;;1.17;;
43998;SDS011;51319;52.162;5.302;2023-05-02T17:13:19;6.53;;;1.05;;
43998;SDS011;51319;52.162;5.302;2023-05-02T17:15:46;2.72;;;0.98;;
43998;SDS011;51319;52.162;5.302;2023-05-02T17:18:13;5.50;;;2.00;;
43998;SDS011;51319;52.162;5.302;2023-05-02T17:20:41;7.88;;;1.20;;
43998;SDS011;51319;52.162;5.302;2023-05-02T17:23:08;3.05;;;1.55;;
43998;SDS011;51319;52.162;5.302;2023-05-02T17:25:37;6.68;;;1.50;;
43998;SDS011;51319;52.162;5.302;2023-05-02T17:28:06;5.13;;;1.45;;
43998;SDS011;51319;52.162;5.302;2023-05-02T17:30:37;8.38;;;1.55;;
43998;SDS011;51319;52.162;5.302;2023-05-02T17:33:05;7.28;;;1.10;;
43998;SDS011;51319;52.162;5.302;2023-05-02T17:35:32;2.95;;;0.88;;
43998;SDS011;51319;52.162;5.302;2023-05-02T17:38:00;3.88;;;1.38;;
43998;SDS011;51319;52.162;5.302;2023-05-02T17:40:29;4.38;;;1.25;;
43998;SDS011;51319;52.162;5.302;2023-05-02T17:42:57;4.20;;;0.95;;
43998;SDS011;51319;52.162;5.302;2023-05-02T17:45:42;3.65;;;0.80;;
43998;SDS011;51319;52.162;5.302;2023-05-02T17:48:22;4.28;;;1.27;;
43998;SDS011;51319;52.162;5.302;2023-05-02T17:50:49;9.23;;;4.97;;